createdAt,value
2022-10-19T00:01:59.277Z,34.05
2022-10-19T00:04:26.881Z,31.63
2022-10-19T00:06:54.324Z,31.52
2022-10-19T00:09:22.814Z,31.10
2022-10-19T00:11:51.057Z,32.88
2022-10-19T00:14:20.638Z,29.50
2022-10-19T00:16:48.942Z,31.25
2022-10-19T00:19:18.796Z,31.75
2022-10-19T00:21:46.524Z,35.20
2022-10-19T00:24:14.588Z,32.90
2022-10-19T00:26:42.542Z,32.15
2022-10-19T00:29:10.865Z,34.90
2022-10-19T00:31:38.625Z,34.72
2022-10-19T00:34:06.344Z,31.98
2022-10-19T00:36:35.445Z,30.50
2022-10-19T00:39:06.278Z,33.63
2022-10-19T00:41:35.275Z,36.53
2022-10-19T00:44:04.738Z,32.80
2022-10-19T00:46:33.665Z,32.10
2022-10-19T00:49:04.927Z,32.78
2022-10-19T00:51:36.701Z,31.05
2022-10-19T00:54:05.680Z,32.50
2022-10-19T00:56:34.073Z,32.20
2022-10-19T00:59:03.288Z,33.83
2022-10-19T01:01:31.659Z,32.85
2022-10-19T01:03:59.529Z,27.85
2022-10-19T01:06:45.468Z,34.90
2022-10-19T01:09:13.251Z,30.55
2022-10-19T01:11:56.010Z,30.83
2022-10-19T01:14:23.534Z,34.60
2022-10-19T01:16:51.297Z,33.83
2022-10-19T01:19:30.056Z,30.92
2022-10-19T01:21:57.589Z,34.80
2022-10-19T01:24:27.943Z,31.52
2022-10-19T01:26:58.483Z,34.90
2022-10-19T01:29:44.430Z,30.88
2022-10-19T01:32:13.456Z,33.03
2022-10-19T01:34:40.777Z,32.92
2022-10-19T01:37:16.958Z,34.75
2022-10-19T01:39:50.561Z,36.47
2022-10-19T01:42:38.358Z,36.40
2022-10-19T01:45:15.649Z,32.20
2022-10-19T01:47:46.451Z,33.65
2022-10-19T01:50:17.758Z,33.65
2022-10-19T01:52:45.331Z,33.33
2022-10-19T01:55:14.951Z,33.55
2022-10-19T01:57:46.068Z,37.15
2022-10-19T02:00:14.870Z,36.20
2022-10-19T02:02:46.525Z,33.28
2022-10-19T02:05:15.898Z,31.80
2022-10-19T02:07:46.691Z,32.30
2022-10-19T02:12:47.458Z,32.17
2022-10-19T02:15:17.610Z,30.10
2022-10-19T02:17:47.661Z,35.33
2022-10-19T02:20:16.195Z,34.88
2022-10-19T02:22:44.011Z,34.83
2022-10-19T02:25:12.054Z,34.42
2022-10-19T02:27:42.075Z,30.23
2022-10-19T02:30:11.185Z,33.33
2022-10-19T02:32:39.357Z,34.55
2022-10-19T02:35:07.379Z,33.08
2022-10-19T02:40:07.687Z,32.00
2022-10-19T02:42:43.563Z,31.30
2022-10-19T02:45:40.550Z,37.20
2022-10-19T02:48:10.644Z,35.97
2022-10-19T02:50:38.281Z,31.70
2022-10-19T02:53:05.864Z,30.13
2022-10-19T02:55:33.620Z,32.40
2022-10-19T02:58:01.029Z,31.38
2022-10-19T03:00:28.502Z,30.42
2022-10-19T03:02:56.130Z,29.55
2022-10-19T03:05:23.536Z,35.55
2022-10-19T03:07:51.092Z,29.35
2022-10-19T03:10:18.575Z,34.78
2022-10-19T03:12:45.908Z,35.92
2022-10-19T03:15:17.442Z,31.65
2022-10-19T03:17:44.851Z,34.30
2022-10-19T03:20:12.395Z,30.80
2022-10-19T03:22:39.924Z,32.88
2022-10-19T03:25:07.602Z,32.55
2022-10-19T03:27:35.416Z,30.50
2022-10-19T03:30:03.411Z,33.85
2022-10-19T03:32:30.982Z,35.28
2022-10-19T03:34:58.632Z,30.45
2022-10-19T03:37:25.783Z,33.03
2022-10-19T03:39:53.318Z,33.35
2022-10-19T03:42:20.825Z,32.63
2022-10-19T03:44:48.571Z,31.52
2022-10-19T03:47:15.948Z,31.38
2022-10-19T03:49:43.783Z,33.83
2022-10-19T03:52:11.564Z,31.02
2022-10-19T03:54:39.307Z,33.78
2022-10-19T03:57:06.860Z,31.48
2022-10-19T03:59:34.621Z,31.75
2022-10-19T04:02:02.524Z,35.70
2022-10-19T04:04:29.922Z,32.08
2022-10-19T04:06:57.741Z,33.25
2022-10-19T04:09:25.426Z,30.80
2022-10-19T04:11:52.974Z,31.70
2022-10-19T04:14:32.024Z,32.67
2022-10-19T04:17:04.271Z,30.58
2022-10-19T04:19:31.860Z,31.00
2022-10-19T04:21:59.566Z,33.72
2022-10-19T04:24:27.451Z,30.95
2022-10-19T04:26:55.616Z,33.08
2022-10-19T04:29:26.465Z,29.65
2022-10-19T04:31:57.447Z,33.95
2022-10-19T04:34:25.239Z,30.55
2022-10-19T04:36:53.646Z,32.38
2022-10-19T04:39:21.284Z,31.65
2022-10-19T04:41:48.859Z,30.20
2022-10-19T04:44:16.562Z,27.67
2022-10-19T04:46:44.216Z,31.10
2022-10-19T04:49:15.131Z,31.17
2022-10-19T04:54:12.779Z,33.20
2022-10-19T04:56:40.449Z,28.95
2022-10-19T04:59:08.106Z,28.92
2022-10-19T05:01:36.298Z,29.15
2022-10-19T05:04:04.160Z,34.72
2022-10-19T05:06:32.445Z,32.90
2022-10-19T05:09:00.393Z,31.63
2022-10-19T05:11:28.330Z,33.38
2022-10-19T05:13:58.592Z,29.10
2022-10-19T05:16:26.159Z,30.58
2022-10-19T05:18:59.255Z,30.90
2022-10-19T05:21:28.239Z,28.98
2022-10-19T05:23:56.444Z,26.95
2022-10-19T05:26:25.030Z,30.10
2022-10-19T05:28:56.995Z,26.90
2022-10-19T05:31:25.501Z,26.15
2022-10-19T05:33:53.093Z,28.25
2022-10-19T05:36:27.831Z,28.77
2022-10-19T05:38:56.280Z,29.58
2022-10-19T05:41:24.881Z,30.30
2022-10-19T05:43:55.598Z,27.70
2022-10-19T05:46:23.860Z,26.83
2022-10-19T05:48:51.355Z,26.83
2022-10-19T05:51:19.948Z,29.83
2022-10-19T05:53:47.598Z,30.77
2022-10-19T05:56:19.182Z,27.98
2022-10-19T05:58:46.997Z,29.83
2022-10-19T06:01:15.277Z,30.75
2022-10-19T06:03:43.088Z,30.20
2022-10-19T06:06:11.108Z,28.70
2022-10-19T06:08:39.064Z,29.23
2022-10-19T06:11:06.526Z,31.38
2022-10-19T06:13:34.246Z,30.65
2022-10-19T06:16:01.962Z,31.48
2022-10-19T06:18:29.935Z,33.63
2022-10-19T06:21:01.155Z,30.40
2022-10-19T06:23:28.713Z,30.80
2022-10-19T06:25:56.200Z,28.90
2022-10-19T06:28:23.718Z,49.75
2022-10-19T06:30:51.083Z,30.52
2022-10-19T06:33:18.873Z,29.70
2022-10-19T06:35:46.432Z,28.55
2022-10-19T06:38:14.295Z,32.15
2022-10-19T06:40:41.752Z,28.27
2022-10-19T06:43:09.399Z,31.38
2022-10-19T06:45:39.944Z,29.85
2022-10-19T06:48:07.952Z,32.17
2022-10-19T06:50:35.682Z,30.55
2022-10-19T06:53:03.236Z,32.40
2022-10-19T06:55:30.603Z,32.05
2022-10-19T06:57:58.765Z,29.60
2022-10-19T07:00:26.458Z,31.90
2022-10-19T07:02:54.157Z,33.35
2022-10-19T07:05:21.358Z,34.92
2022-10-19T07:07:48.759Z,36.88
2022-10-19T07:10:16.074Z,31.25
2022-10-19T07:12:43.426Z,32.92
2022-10-19T07:15:11.040Z,36.10
2022-10-19T07:17:38.648Z,32.08
2022-10-19T07:20:06.496Z,33.78
2022-10-19T07:22:34.407Z,31.88
2022-10-19T07:25:02.449Z,36.85
2022-10-19T07:27:32.884Z,34.45
2022-10-19T07:30:04.388Z,32.45
2022-10-19T07:32:31.931Z,34.38
2022-10-19T07:34:59.692Z,31.77
2022-10-19T07:37:27.408Z,32.55
2022-10-19T07:39:55.096Z,30.67
2022-10-19T07:42:25.698Z,31.23
2022-10-19T07:44:53.617Z,32.33
2022-10-19T07:47:21.366Z,31.67
2022-10-19T07:49:49.214Z,30.10
2022-10-19T07:52:17.172Z,36.20
2022-10-19T07:54:45.049Z,32.22
2022-10-19T07:57:12.954Z,29.38
2022-10-19T07:59:40.913Z,28.27
2022-10-19T08:02:14.773Z,31.25
2022-10-19T08:04:59.870Z,31.42
2022-10-19T08:07:30.252Z,33.22
2022-10-19T08:10:00.605Z,35.03
2022-10-19T08:12:27.982Z,33.10
2022-10-19T08:14:55.597Z,34.45
2022-10-19T08:17:23.355Z,31.27
2022-10-19T08:19:51.190Z,30.70
2022-10-19T08:22:19.259Z,29.42
2022-10-19T08:24:46.979Z,31.27
2022-10-19T08:27:14.948Z,30.67
2022-10-19T08:29:42.463Z,32.90
2022-10-19T08:32:10.547Z,30.83
2022-10-19T08:34:38.059Z,32.58
2022-10-19T08:37:14.689Z,29.05
2022-10-19T08:39:53.394Z,32.17
2022-10-19T08:42:25.372Z,33.03
2022-10-19T08:45:08.143Z,26.52
2022-10-19T08:47:36.058Z,29.65
2022-10-19T08:50:04.099Z,33.42
2022-10-19T08:52:34.804Z,31.13
2022-10-19T08:55:13.913Z,30.67
2022-10-19T08:57:53.480Z,30.20
2022-10-19T09:00:33.181Z,28.90
2022-10-19T09:03:27.180Z,31.50
2022-10-19T09:06:20.035Z,30.67
2022-10-19T09:08:48.622Z,30.95
2022-10-19T09:11:16.657Z,32.25
2022-10-19T09:14:04.342Z,32.30
2022-10-19T09:16:33.401Z,31.80
2022-10-19T09:19:00.744Z,33.58
2022-10-19T09:21:47.026Z,36.75
2022-10-19T09:24:28.849Z,32.70
2022-10-19T09:26:58.829Z,27.65
2022-10-19T09:29:37.797Z,35.58
2022-10-19T09:32:11.527Z,32.88
2022-10-19T09:34:52.921Z,36.28
2022-10-19T09:37:26.037Z,34.58
2022-10-19T09:39:55.808Z,37.30
2022-10-19T09:42:26.225Z,34.47
2022-10-19T09:44:54.879Z,36.03
2022-10-19T09:47:36.063Z,38.15
2022-10-19T09:50:07.064Z,40.72
2022-10-19T09:52:36.386Z,32.88
2022-10-19T09:55:05.657Z,34.53
2022-10-19T09:57:33.236Z,34.65
2022-10-19T10:00:00.797Z,39.55
2022-10-19T10:02:32.998Z,35.00
2022-10-19T10:05:03.693Z,34.53
2022-10-19T10:07:34.476Z,36.92
2022-10-19T10:10:02.267Z,37.10
2022-10-19T10:12:29.688Z,39.80
2022-10-19T10:14:57.354Z,31.90
2022-10-19T10:17:30.544Z,41.63
2022-10-19T10:19:57.930Z,37.05
2022-10-19T10:22:30.607Z,39.63
2022-10-19T10:24:58.061Z,37.17
2022-10-19T10:27:36.133Z,41.55
2022-10-19T10:30:16.137Z,42.70
2022-10-19T10:32:48.188Z,41.67
2022-10-19T10:35:24.881Z,40.65
2022-10-19T10:37:52.676Z,39.70
2022-10-19T10:40:24.768Z,43.05
2022-10-19T10:42:53.817Z,44.15
2022-10-19T10:45:37.043Z,41.65
2022-10-19T10:48:28.063Z,39.22
2022-10-19T10:50:56.460Z,46.92
2022-10-19T10:53:31.698Z,43.17
2022-10-19T10:55:59.138Z,43.40
2022-10-19T10:58:39.008Z,45.80
2022-10-19T11:01:13.435Z,41.22
2022-10-19T11:03:45.436Z,45.85
2022-10-19T11:06:13.407Z,46.17
2022-10-19T11:08:49.879Z,49.15
2022-10-19T11:11:26.202Z,39.67
2022-10-19T11:13:57.326Z,48.72
2022-10-19T11:16:28.856Z,46.92
2022-10-19T11:19:02.356Z,46.50
2022-10-19T11:21:42.174Z,48.15
2022-10-19T11:24:15.418Z,47.38
2022-10-19T11:26:48.505Z,48.83
2022-10-19T11:29:34.359Z,47.78
2022-10-19T11:32:01.775Z,46.78
2022-10-19T11:34:46.428Z,45.97
2022-10-19T11:37:19.572Z,44.33
2022-10-19T11:40:05.258Z,43.00
2022-10-19T11:42:54.896Z,47.83
2022-10-19T11:45:27.911Z,47.65
2022-10-19T11:47:55.433Z,36.72
2022-10-19T11:50:28.339Z,44.63
2022-10-19T11:53:01.776Z,45.50
2022-10-19T11:55:53.618Z,46.17
2022-10-19T11:58:34.620Z,45.20
2022-10-19T12:01:20.955Z,41.75
2022-10-19T12:04:00.554Z,42.80
2022-10-19T12:06:36.671Z,42.35
2022-10-19T12:09:06.902Z,44.95
2022-10-19T12:11:34.406Z,44.45
2022-10-19T12:14:06.562Z,43.83
2022-10-19T12:16:36.111Z,37.72
2022-10-19T12:19:04.860Z,38.80
2022-10-19T12:21:40.056Z,42.35
2022-10-19T12:24:13.964Z,44.03
2022-10-19T12:26:41.958Z,43.10
2022-10-19T12:29:21.672Z,42.28
2022-10-19T12:31:49.502Z,43.85
2022-10-19T12:34:25.869Z,42.45
2022-10-19T12:36:53.394Z,37.78
2022-10-19T12:39:33.516Z,35.78
2022-10-19T12:42:10.846Z,39.70
2022-10-19T12:44:47.451Z,35.33
2022-10-19T12:47:18.185Z,30.98
2022-10-19T12:49:47.647Z,31.00
2022-10-19T12:52:17.443Z,32.50
2022-10-19T12:54:45.342Z,29.15
2022-10-19T12:57:26.138Z,29.75
2022-10-19T13:00:16.648Z,28.17
2022-10-19T13:02:45.317Z,29.55
2022-10-19T13:05:22.349Z,28.10
2022-10-19T13:10:24.587Z,29.48
2022-10-19T13:12:52.318Z,31.65
2022-10-19T13:15:37.743Z,31.98
2022-10-19T13:18:11.691Z,33.70
2022-10-19T13:23:07.941Z,36.40
2022-10-19T13:25:36.322Z,33.25
2022-10-19T13:28:06.603Z,33.65
2022-10-19T13:30:37.488Z,30.60
2022-10-19T13:33:24.586Z,28.08
2022-10-19T13:36:00.921Z,29.92
2022-10-19T13:38:28.574Z,31.15
2022-10-19T13:40:56.286Z,31.75
2022-10-19T13:43:31.880Z,30.65
2022-10-19T13:46:08.307Z,30.08
2022-10-19T13:48:41.460Z,31.23
2022-10-19T13:51:26.367Z,32.75
2022-10-19T13:54:06.564Z,33.78
2022-10-19T13:56:57.254Z,32.90
2022-10-19T13:59:30.728Z,32.83
2022-10-19T14:02:21.512Z,31.77
2022-10-19T14:05:07.003Z,30.50
2022-10-19T14:07:50.015Z,32.35
2022-10-19T14:10:18.906Z,31.85
2022-10-19T14:12:46.773Z,31.98
2022-10-19T14:15:27.485Z,31.58
2022-10-19T14:17:55.250Z,29.35
2022-10-19T14:20:33.164Z,31.88
2022-10-19T14:23:19.899Z,29.83
2022-10-19T14:25:52.088Z,29.85
2022-10-19T14:28:19.635Z,30.40
2022-10-19T14:30:54.302Z,31.58
2022-10-19T14:33:21.839Z,30.58
2022-10-19T14:35:50.035Z,31.08
2022-10-19T14:38:20.536Z,30.42
2022-10-19T14:40:48.178Z,30.92
2022-10-19T14:43:20.921Z,27.25
2022-10-19T14:46:06.822Z,29.42
2022-10-19T14:48:52.091Z,30.85
2022-10-19T14:51:19.601Z,32.03
2022-10-19T14:53:50.057Z,30.08
2022-10-19T14:56:18.179Z,31.40
2022-10-19T14:58:49.789Z,30.25
2022-10-19T15:01:21.053Z,31.30
2022-10-19T15:03:48.983Z,30.52
2022-10-19T15:06:19.587Z,29.63
2022-10-19T15:08:49.670Z,29.58
2022-10-19T15:11:28.062Z,29.10
2022-10-19T15:13:57.320Z,28.77
2022-10-19T15:16:51.561Z,33.25
2022-10-19T15:19:19.242Z,33.92
2022-10-19T15:21:46.876Z,34.15
2022-10-19T15:24:26.130Z,30.80
2022-10-19T15:27:06.640Z,33.30
2022-10-19T15:29:36.128Z,34.03
2022-10-19T15:32:16.304Z,32.42
2022-10-19T15:34:44.596Z,31.77
2022-10-19T15:37:17.037Z,32.03
2022-10-19T15:39:45.706Z,31.57
2022-10-19T15:42:32.139Z,32.22
2022-10-19T15:45:00.270Z,29.80
2022-10-19T15:47:27.620Z,30.25
2022-10-19T15:49:56.491Z,28.60
2022-10-19T15:52:25.541Z,30.23
2022-10-19T15:54:54.949Z,28.88
2022-10-19T15:57:31.111Z,29.70
2022-10-19T16:00:00.339Z,31.48
2022-10-19T16:02:27.755Z,29.52
2022-10-19T16:04:55.502Z,29.40
2022-10-19T16:07:31.021Z,29.02
2022-10-19T16:09:58.799Z,32.30
2022-10-19T16:12:26.752Z,30.35
2022-10-19T16:14:54.649Z,26.75
2022-10-19T16:17:22.719Z,31.02
2022-10-19T16:19:50.383Z,26.00
2022-10-19T16:22:18.181Z,29.30
2022-10-19T16:24:45.727Z,28.63
2022-10-19T16:27:16.516Z,27.23
2022-10-19T16:29:45.068Z,31.33
2022-10-19T16:32:12.502Z,30.95
2022-10-19T16:34:40.029Z,30.92
2022-10-19T16:37:07.666Z,31.52
2022-10-19T16:39:35.309Z,32.72
2022-10-19T16:42:02.983Z,30.38
2022-10-19T16:44:30.564Z,32.85
2022-10-19T16:46:58.542Z,32.28
2022-10-19T16:49:26.363Z,33.63
2022-10-19T16:51:57.219Z,33.47
2022-10-19T16:54:26.918Z,33.15
2022-10-19T16:56:55.817Z,31.50
2022-10-19T16:59:23.351Z,33.90
2022-10-19T17:01:50.813Z,35.17
2022-10-19T17:04:18.683Z,30.17
2022-10-19T17:06:46.523Z,32.15
2022-10-19T17:09:40.216Z,35.47
2022-10-19T17:12:02.620Z,23.42
2022-10-19T17:14:31.436Z,27.65
2022-10-19T17:16:58.895Z,30.48
2022-10-19T17:19:26.870Z,33.08
2022-10-19T17:21:58.110Z,31.63
2022-10-19T17:24:26.002Z,32.55
2022-10-19T17:26:53.326Z,31.40
2022-10-19T17:29:21.738Z,33.95
2022-10-19T17:31:49.893Z,30.48
2022-10-19T17:34:17.635Z,28.98
2022-10-19T17:36:45.793Z,29.27
2022-10-19T17:39:18.392Z,26.73
2022-10-19T17:41:46.191Z,30.55
2022-10-19T17:44:14.152Z,34.45
2022-10-19T17:46:41.609Z,27.77
2022-10-19T17:49:09.947Z,31.98
2022-10-19T17:51:38.033Z,32.05
2022-10-19T17:54:07.611Z,27.00
2022-10-19T17:56:35.610Z,30.65
2022-10-19T17:59:03.685Z,30.85
2022-10-19T18:01:31.158Z,30.70
2022-10-19T18:03:58.818Z,31.55
2022-10-19T18:06:36.035Z,29.70
2022-10-19T18:09:06.046Z,25.23
2022-10-19T18:11:38.576Z,30.08
2022-10-19T18:14:08.003Z,27.53
2022-10-19T18:16:37.225Z,26.08
2022-10-19T18:19:05.995Z,25.80
2022-10-19T18:21:35.740Z,21.50
2022-10-19T18:24:03.638Z,25.15
2022-10-19T18:26:32.485Z,23.33
2022-10-19T18:29:01.174Z,24.05
2022-10-19T18:31:29.731Z,21.55
2022-10-19T18:33:58.568Z,21.35
2022-10-19T18:36:26.251Z,21.88
2022-10-19T18:38:55.016Z,20.83
2022-10-19T18:41:23.476Z,24.05
2022-10-19T18:43:54.293Z,22.60
2022-10-19T18:46:22.877Z,18.33
2022-10-19T18:48:50.502Z,22.58
2022-10-19T18:51:18.939Z,21.42
2022-10-19T18:53:47.374Z,23.95
2022-10-19T18:56:15.815Z,23.35
2022-10-19T18:58:43.500Z,24.55
2022-10-19T19:01:15.533Z,28.70
2022-10-19T19:03:44.742Z,26.70
2022-10-19T19:06:14.057Z,31.10
2022-10-19T19:08:41.833Z,30.15
2022-10-19T19:11:13.663Z,32.03
2022-10-19T19:13:41.851Z,30.17
2022-10-19T19:16:09.542Z,27.88
2022-10-19T19:18:37.240Z,26.33
2022-10-19T19:21:05.557Z,28.77
2022-10-19T19:23:33.420Z,29.48
2022-10-19T19:26:02.902Z,33.17
2022-10-19T19:28:30.781Z,33.75
2022-10-19T19:30:58.383Z,27.42
2022-10-19T19:33:26.564Z,34.17
2022-10-19T19:35:54.480Z,32.08
2022-10-19T19:38:22.654Z,31.83
2022-10-19T19:40:50.225Z,31.85
2022-10-19T19:43:18.182Z,31.77
2022-10-19T19:48:28.973Z,29.17
2022-10-19T19:50:57.172Z,31.77
2022-10-19T19:53:25.276Z,29.08
2022-10-19T19:55:52.910Z,34.67
2022-10-19T19:58:20.462Z,31.52
2022-10-19T20:00:48.152Z,33.63
2022-10-19T20:03:16.669Z,31.45
2022-10-19T20:05:44.326Z,34.63
2022-10-19T20:08:11.939Z,29.77
2022-10-19T20:10:39.754Z,30.60
2022-10-19T20:13:07.152Z,29.88
2022-10-19T20:15:37.053Z,33.58
2022-10-19T20:18:05.000Z,33.00
2022-10-19T20:20:32.453Z,34.25
2022-10-19T20:23:00.052Z,29.27
2022-10-19T20:25:27.564Z,29.75
2022-10-19T20:27:55.571Z,28.05
2022-10-19T20:30:23.376Z,26.83
2022-10-19T20:32:53.411Z,28.90
2022-10-19T20:35:20.987Z,25.58
2022-10-19T20:37:49.626Z,25.52
2022-10-19T20:40:17.348Z,26.85
2022-10-19T20:42:46.092Z,27.13
2022-10-19T20:45:14.035Z,21.88
2022-10-19T20:47:41.597Z,25.30
2022-10-19T20:50:09.352Z,23.17
2022-10-19T20:52:38.636Z,22.73
2022-10-19T20:55:06.910Z,18.10
2022-10-19T20:57:34.442Z,22.95
2022-10-19T21:00:01.933Z,21.10
2022-10-19T21:02:29.594Z,19.70
2022-10-19T21:04:57.362Z,20.58
2022-10-19T21:07:24.998Z,20.48
2022-10-19T21:09:53.889Z,23.08
2022-10-19T21:12:21.475Z,21.67
2022-10-19T21:14:49.245Z,19.70
2022-10-19T21:17:16.791Z,19.25
2022-10-19T21:19:44.199Z,20.17
2022-10-19T21:22:11.637Z,17.30
2022-10-19T21:24:39.788Z,18.52
2022-10-19T21:27:09.241Z,18.42
2022-10-19T21:29:36.933Z,17.35
2022-10-19T21:32:04.531Z,17.48
2022-10-19T21:34:32.106Z,18.00
2022-10-19T21:36:59.640Z,16.10
2022-10-19T21:39:27.168Z,16.63
2022-10-19T21:41:55.016Z,16.42
2022-10-19T21:44:23.436Z,17.17
2022-10-19T21:46:51.000Z,16.65
2022-10-19T21:49:18.747Z,16.40
2022-10-19T21:51:46.262Z,16.55
2022-10-19T21:54:14.741Z,18.67
2022-10-19T21:56:42.590Z,19.50
2022-10-19T21:59:13.012Z,16.83
2022-10-19T22:01:41.492Z,17.25
2022-10-19T22:04:13.358Z,16.95
2022-10-19T22:06:41.316Z,17.05
2022-10-19T22:09:09.718Z,17.80
2022-10-19T22:11:37.345Z,17.75
2022-10-19T22:14:05.059Z,17.13
2022-10-19T22:16:33.361Z,14.85
2022-10-19T22:19:01.083Z,15.25
2022-10-19T22:21:30.621Z,17.92
2022-10-19T22:24:00.586Z,16.70
2022-10-19T22:26:29.408Z,16.48
2022-10-19T22:28:57.829Z,16.15
2022-10-19T22:31:25.962Z,18.23
2022-10-19T22:33:53.326Z,16.02
2022-10-19T22:36:20.740Z,16.83
2022-10-19T22:38:48.347Z,16.77
2022-10-19T22:41:15.735Z,17.48
2022-10-19T22:43:42.888Z,16.65
2022-10-19T22:46:10.547Z,17.05
2022-10-19T22:48:38.131Z,17.67
2022-10-19T22:51:05.689Z,15.57
2022-10-19T22:53:33.256Z,16.92
2022-10-19T22:56:00.743Z,16.77
2022-10-19T22:58:28.257Z,15.48
2022-10-19T23:01:02.807Z,17.65
2022-10-19T23:03:30.348Z,17.40
2022-10-19T23:05:58.009Z,16.52
2022-10-19T23:08:25.869Z,17.30
2022-10-19T23:10:53.279Z,17.45
2022-10-19T23:13:20.647Z,17.85
2022-10-19T23:15:48.128Z,15.68
2022-10-19T23:18:15.485Z,17.05
2022-10-19T23:20:43.281Z,17.90
2022-10-19T23:23:10.653Z,15.27
2022-10-19T23:25:38.055Z,17.25
2022-10-19T23:28:05.560Z,19.13
2022-10-19T23:30:33.249Z,18.00
2022-10-19T23:33:00.618Z,14.93
2022-10-19T23:35:27.917Z,18.02
2022-10-19T23:37:55.954Z,16.42
2022-10-19T23:40:23.566Z,17.10
2022-10-19T23:42:51.206Z,18.45
2022-10-19T23:45:19.537Z,15.68
2022-10-19T23:47:46.918Z,14.75
2022-10-19T23:50:14.377Z,18.38
2022-10-19T23:52:42.153Z,17.35
2022-10-19T23:55:09.819Z,16.17
2022-10-19T23:57:37.791Z,17.70
